createdAt,value
2017-10-17T00:00:57.601Z,13.00
2017-10-17T00:03:25.230Z,12.90
2017-10-17T00:05:52.827Z,12.90
2017-10-17T00:08:20.410Z,12.90
2017-10-17T00:10:47.989Z,12.80
2017-10-17T00:13:15.616Z,12.80
2017-10-17T00:15:43.253Z,12.80
2017-10-17T00:18:10.886Z,12.80
2017-10-17T00:20:38.482Z,12.70
2017-10-17T00:23:06.099Z,12.70
2017-10-17T00:25:33.721Z,12.60
2017-10-17T00:28:01.356Z,12.60
2017-10-17T00:30:32.454Z,12.60
2017-10-17T00:33:02.790Z,12.60
2017-10-17T00:35:35.262Z,12.70
2017-10-17T00:38:02.947Z,12.80
2017-10-17T00:40:31.410Z,13.00
2017-10-17T00:43:00.686Z,13.00
2017-10-17T00:45:28.311Z,13.20
2017-10-17T00:47:55.931Z,13.30
2017-10-17T00:50:23.577Z,13.40
2017-10-17T00:52:51.243Z,13.50
2017-10-17T00:55:18.865Z,13.50
2017-10-17T00:57:46.507Z,13.60
2017-10-17T01:00:14.150Z,13.60
2017-10-17T01:02:41.749Z,13.50
2017-10-17T01:05:09.361Z,13.50
2017-10-17T01:07:37.101Z,13.50
2017-10-17T01:10:04.731Z,13.50
2017-10-17T01:12:32.350Z,13.40
2017-10-17T01:14:59.984Z,13.40
2017-10-17T01:17:27.635Z,13.40
2017-10-17T01:20:22.973Z,13.30
2017-10-17T01:22:50.557Z,13.30
2017-10-17T01:25:18.190Z,13.30
2017-10-17T01:27:45.869Z,13.30
2017-10-17T01:30:16.222Z,13.30
2017-10-17T01:32:43.992Z,13.30
2017-10-17T01:35:11.614Z,13.20
2017-10-17T01:37:39.234Z,13.10
2017-10-17T01:43:08.884Z,13.10
2017-10-17T01:45:36.514Z,13.00
2017-10-17T01:48:09.630Z,13.00
2017-10-17T01:50:38.011Z,13.10
2017-10-17T01:53:09.465Z,13.10
2017-10-17T01:55:37.155Z,13.00
2017-10-17T01:58:09.259Z,13.00
2017-10-17T02:03:28.159Z,12.90
2017-10-17T02:05:55.795Z,12.90
2017-10-17T02:08:24.190Z,12.90
2017-10-17T02:10:56.563Z,12.80
2017-10-17T02:13:24.191Z,12.90
2017-10-17T02:15:51.835Z,12.90
2017-10-17T02:18:34.334Z,12.80
2017-10-17T02:21:02.802Z,12.80
2017-10-17T02:23:30.442Z,12.80
2017-10-17T02:29:15.973Z,12.80
2017-10-17T02:31:43.570Z,12.80
2017-10-17T02:34:16.518Z,12.80
2017-10-17T02:36:44.149Z,12.80
2017-10-17T02:39:11.779Z,12.80
2017-10-17T02:41:39.414Z,12.80
2017-10-17T02:44:07.046Z,12.80
2017-10-17T02:46:36.540Z,12.80
2017-10-17T02:49:06.645Z,12.80
2017-10-17T02:51:34.276Z,12.80
2017-10-17T02:54:01.870Z,12.80
2017-10-17T02:56:29.498Z,12.80
2017-10-17T02:58:57.111Z,12.80
2017-10-17T03:01:31.091Z,12.80
2017-10-17T03:03:59.497Z,12.80
2017-10-17T03:06:27.130Z,12.90
2017-10-17T03:08:54.759Z,12.80
2017-10-17T03:11:22.388Z,12.90
2017-10-17T03:13:49.976Z,12.90
2017-10-17T03:16:17.704Z,12.90
2017-10-17T03:18:45.303Z,12.90
2017-10-17T03:21:14.550Z,12.90
2017-10-17T03:23:46.516Z,12.90
2017-10-17T03:26:14.111Z,13.00
2017-10-17T03:28:42.621Z,13.00
2017-10-17T03:31:10.244Z,12.90
2017-10-17T03:33:37.952Z,13.00
2017-10-17T03:36:13.062Z,12.90
2017-10-17T03:38:48.135Z,12.90
2017-10-17T03:41:32.132Z,12.80
2017-10-17T03:44:10.568Z,12.80
2017-10-17T03:46:47.507Z,12.80
2017-10-17T03:49:21.005Z,12.80
2017-10-17T03:51:48.618Z,12.70
2017-10-17T03:54:16.250Z,12.70
2017-10-17T03:56:43.874Z,12.70
2017-10-17T03:59:15.274Z,12.60
2017-10-17T04:01:42.986Z,12.60
2017-10-17T04:04:34.280Z,12.60
2017-10-17T04:07:13.750Z,12.50
2017-10-17T04:09:51.267Z,12.50
2017-10-17T04:12:18.859Z,12.50
2017-10-17T04:14:53.903Z,12.40
2017-10-17T04:17:32.168Z,12.40
2017-10-17T04:20:08.397Z,12.30
2017-10-17T04:22:41.866Z,12.30
2017-10-17T04:25:26.159Z,12.30
2017-10-17T04:28:08.190Z,12.30
2017-10-17T04:30:56.415Z,12.30
2017-10-17T04:33:30.711Z,12.30
2017-10-17T04:36:04.906Z,12.30
2017-10-17T04:38:32.530Z,12.30
2017-10-17T04:41:00.146Z,12.30
2017-10-17T04:46:32.358Z,12.30
2017-10-17T04:49:04.799Z,12.30
2017-10-17T04:51:38.094Z,12.20
2017-10-17T04:54:14.287Z,12.20
2017-10-17T04:56:45.567Z,12.20
2017-10-17T04:59:18.760Z,12.20
2017-10-17T05:01:47.084Z,12.20
2017-10-17T05:04:20.430Z,12.10
2017-10-17T05:06:48.065Z,12.10
2017-10-17T05:09:30.558Z,12.10
2017-10-17T05:12:01.943Z,12.00
2017-10-17T05:14:44.290Z,12.00
2017-10-17T05:17:24.548Z,12.00
2017-10-17T05:20:21.694Z,12.00
2017-10-17T05:22:53.178Z,12.10
2017-10-17T05:25:22.662Z,12.20
2017-10-17T05:28:23.679Z,12.20
2017-10-17T05:30:53.724Z,12.30
2017-10-17T05:33:23.063Z,12.30
2017-10-17T05:35:50.691Z,12.30
2017-10-17T05:38:18.318Z,12.20
2017-10-17T05:40:45.957Z,12.20
2017-10-17T05:43:16.359Z,12.20
2017-10-17T05:45:43.988Z,12.10
2017-10-17T05:48:13.435Z,12.10
2017-10-17T05:50:56.719Z,12.10
2017-10-17T05:53:24.335Z,12.10
2017-10-17T05:55:51.958Z,12.10
2017-10-17T05:58:20.350Z,12.10
2017-10-17T06:00:48.726Z,12.20
2017-10-17T06:03:17.065Z,12.20
2017-10-17T06:05:44.679Z,12.20
2017-10-17T06:08:12.286Z,12.20
2017-10-17T06:10:39.899Z,12.30
2017-10-17T06:13:07.507Z,12.40
2017-10-17T06:15:35.120Z,12.40
2017-10-17T06:18:02.695Z,12.50
2017-10-17T06:20:30.342Z,12.60
2017-10-17T06:22:57.914Z,12.70
2017-10-17T06:25:25.522Z,12.80
2017-10-17T06:27:53.190Z,12.90
2017-10-17T06:30:20.763Z,13.10
2017-10-17T06:32:48.378Z,13.20
2017-10-17T06:35:15.993Z,13.40
2017-10-17T06:37:43.607Z,13.50
2017-10-17T06:40:11.227Z,13.60
2017-10-17T06:42:38.834Z,13.70
2017-10-17T06:45:06.446Z,13.70
2017-10-17T06:47:34.090Z,13.70
2017-10-17T06:50:02.456Z,13.70
2017-10-17T06:52:30.086Z,13.70
2017-10-17T06:54:57.699Z,13.70
2017-10-17T06:57:26.098Z,13.70
2017-10-17T06:59:53.775Z,13.70
2017-10-17T07:02:21.349Z,13.80
2017-10-17T07:04:48.918Z,13.80
2017-10-17T07:07:16.508Z,13.90
2017-10-17T07:09:44.134Z,14.00
2017-10-17T07:12:11.742Z,14.10
2017-10-17T07:14:40.115Z,14.30
2017-10-17T07:17:08.490Z,14.40
2017-10-17T07:19:36.152Z,14.40
2017-10-17T07:22:03.762Z,14.50
2017-10-17T07:24:31.398Z,14.60
2017-10-17T07:26:59.076Z,14.60
2017-10-17T07:29:26.687Z,14.70
2017-10-17T07:31:54.300Z,14.70
2017-10-17T07:34:21.907Z,14.80
2017-10-17T07:36:49.527Z,14.80
2017-10-17T07:39:17.143Z,14.80
2017-10-17T07:41:44.753Z,14.90
2017-10-17T07:44:12.370Z,15.00
2017-10-17T07:46:40.747Z,15.20
2017-10-17T07:49:09.086Z,15.30
2017-10-17T07:51:36.656Z,15.30
2017-10-17T07:54:04.275Z,15.40
2017-10-17T07:56:31.883Z,15.50
2017-10-17T07:58:59.542Z,15.60
2017-10-17T08:01:27.173Z,15.70
2017-10-17T08:03:54.789Z,15.90
2017-10-17T08:06:23.205Z,16.00
2017-10-17T08:08:50.833Z,16.10
2017-10-17T08:11:18.492Z,16.10
2017-10-17T08:13:46.110Z,16.30
2017-10-17T08:16:13.728Z,16.40
2017-10-17T08:18:41.437Z,16.50
2017-10-17T08:21:09.051Z,16.60
2017-10-17T08:23:36.663Z,16.70
2017-10-17T08:26:04.277Z,16.80
2017-10-17T08:28:31.912Z,16.90
2017-10-17T08:30:59.527Z,16.90
2017-10-17T08:33:27.152Z,17.00
2017-10-17T08:35:54.779Z,17.10
2017-10-17T08:38:22.374Z,17.20
2017-10-17T08:40:49.992Z,17.20
2017-10-17T08:43:17.606Z,17.30
2017-10-17T08:45:45.236Z,17.40
2017-10-17T08:48:12.867Z,17.50
2017-10-17T08:50:40.490Z,17.50
2017-10-17T08:53:08.879Z,17.60
2017-10-17T08:55:36.482Z,17.60
2017-10-17T08:58:04.115Z,17.70
2017-10-17T09:00:31.732Z,17.80
2017-10-17T09:02:59.308Z,17.80
2017-10-17T09:05:27.684Z,17.90
2017-10-17T09:07:56.067Z,18.00
2017-10-17T09:10:24.411Z,18.10
2017-10-17T09:12:51.991Z,18.10
2017-10-17T09:15:19.602Z,18.10
2017-10-17T09:17:47.236Z,18.20
2017-10-17T09:20:14.892Z,18.30
2017-10-17T09:22:43.266Z,18.40
2017-10-17T09:25:11.647Z,18.50
2017-10-17T09:27:40.033Z,18.50
2017-10-17T09:30:08.369Z,18.60
2017-10-17T09:32:35.943Z,18.50
2017-10-17T09:35:03.562Z,18.60
2017-10-17T09:37:31.195Z,18.70
2017-10-17T09:39:58.857Z,18.80
2017-10-17T09:42:27.193Z,18.90
2017-10-17T09:44:54.806Z,18.90
2017-10-17T09:47:22.385Z,19.00
2017-10-17T09:49:50.000Z,19.10
2017-10-17T09:52:17.620Z,19.20
2017-10-17T09:54:45.285Z,19.20
2017-10-17T09:57:12.915Z,19.30
2017-10-17T09:59:40.537Z,19.40
2017-10-17T10:02:08.146Z,19.50
2017-10-17T10:04:35.830Z,19.50
2017-10-17T10:07:03.450Z,19.60
2017-10-17T10:09:31.077Z,19.70
2017-10-17T10:11:58.707Z,19.80
2017-10-17T10:14:26.336Z,19.90
2017-10-17T10:16:54.138Z,19.90
2017-10-17T10:19:21.770Z,20.00
2017-10-17T10:21:49.378Z,20.00
2017-10-17T10:24:16.995Z,20.00
2017-10-17T10:26:44.626Z,20.10
2017-10-17T10:29:12.243Z,20.10
2017-10-17T10:31:39.856Z,20.20
2017-10-17T10:34:07.466Z,20.20
2017-10-17T10:36:35.074Z,20.30
2017-10-17T10:39:02.687Z,20.30
2017-10-17T10:41:30.308Z,20.30
2017-10-17T10:43:57.931Z,20.40
2017-10-17T10:46:25.546Z,20.50
2017-10-17T10:48:53.159Z,20.50
2017-10-17T10:51:20.770Z,20.60
2017-10-17T10:53:48.378Z,20.60
2017-10-17T10:56:15.991Z,20.70
2017-10-17T10:58:43.623Z,20.70
2017-10-17T11:01:11.998Z,20.80
2017-10-17T11:03:39.616Z,20.80
2017-10-17T11:06:07.226Z,20.90
2017-10-17T11:08:35.563Z,21.00
2017-10-17T11:11:03.140Z,21.00
2017-10-17T11:13:30.754Z,21.10
2017-10-17T11:15:58.367Z,21.20
2017-10-17T11:18:26.038Z,21.30
2017-10-17T11:20:53.649Z,21.40
2017-10-17T11:23:21.264Z,21.40
2017-10-17T11:25:48.878Z,21.40
2017-10-17T11:28:16.490Z,21.40
2017-10-17T11:30:44.883Z,21.60
2017-10-17T11:33:13.263Z,21.60
2017-10-17T11:35:41.639Z,21.70
2017-10-17T11:38:10.018Z,21.80
2017-10-17T11:40:50.095Z,21.80
2017-10-17T11:43:42.394Z,21.70
2017-10-17T11:46:10.003Z,21.80
2017-10-17T11:48:37.615Z,21.80
2017-10-17T11:51:05.243Z,21.80
2017-10-17T11:53:32.890Z,21.90
2017-10-17T11:56:00.517Z,21.90
2017-10-17T11:58:28.138Z,22.00
2017-10-17T12:00:55.750Z,22.00
2017-10-17T12:03:23.369Z,22.10
2017-10-17T12:05:51.015Z,22.20
2017-10-17T12:08:18.674Z,22.30
2017-10-17T12:10:46.305Z,22.40
2017-10-17T12:13:13.944Z,22.50
2017-10-17T12:15:41.628Z,22.50
2017-10-17T12:18:09.252Z,22.50
2017-10-17T12:20:36.966Z,22.50
2017-10-17T12:23:04.586Z,22.40
2017-10-17T12:25:32.220Z,22.40
2017-10-17T12:27:59.842Z,22.40
2017-10-17T12:30:27.467Z,22.40
2017-10-17T12:32:55.847Z,22.50
2017-10-17T12:35:24.228Z,22.40
2017-10-17T12:37:52.618Z,22.40
2017-10-17T12:40:20.238Z,22.40
2017-10-17T12:42:47.901Z,22.40
2017-10-17T12:45:15.515Z,22.40
2017-10-17T12:47:43.135Z,22.50
2017-10-17T12:50:10.768Z,22.50
2017-10-17T12:52:38.399Z,22.50
2017-10-17T12:55:06.080Z,22.50
2017-10-17T12:57:33.666Z,22.50
2017-10-17T13:00:01.751Z,22.50
2017-10-17T13:02:29.372Z,22.50
2017-10-17T13:04:57.152Z,22.50
2017-10-17T13:07:24.848Z,22.50
2017-10-17T13:09:53.255Z,22.40
2017-10-17T13:12:21.634Z,22.40
2017-10-17T13:14:49.263Z,22.30
2017-10-17T13:17:17.266Z,22.30
2017-10-17T13:19:44.943Z,22.40
2017-10-17T13:22:12.582Z,22.30
2017-10-17T13:24:40.293Z,22.30
2017-10-17T13:27:07.938Z,22.30
2017-10-17T13:29:35.594Z,22.20
2017-10-17T13:32:03.253Z,22.20
2017-10-17T13:34:30.903Z,22.20
2017-10-17T13:36:58.549Z,22.10
2017-10-17T13:39:26.179Z,22.00
2017-10-17T13:41:53.796Z,21.90
2017-10-17T13:44:21.403Z,21.80
2017-10-17T13:46:49.149Z,21.70
2017-10-17T13:49:16.766Z,21.70
2017-10-17T13:51:44.383Z,21.60
2017-10-17T13:54:12.007Z,21.50
2017-10-17T13:56:39.617Z,21.40
2017-10-17T13:59:07.243Z,21.40
2017-10-17T14:01:34.862Z,21.30
2017-10-17T14:04:02.479Z,21.30
2017-10-17T14:06:30.085Z,21.20
2017-10-17T14:08:57.718Z,21.10
2017-10-17T14:11:25.528Z,21.10
2017-10-17T14:13:53.889Z,21.00
2017-10-17T14:16:22.263Z,20.90
2017-10-17T14:18:49.882Z,20.90
2017-10-17T14:21:17.493Z,20.90
2017-10-17T14:23:45.975Z,20.90
2017-10-17T14:26:13.591Z,20.90
2017-10-17T14:28:41.437Z,20.80
2017-10-17T14:31:09.120Z,20.80
2017-10-17T14:33:36.735Z,20.80
2017-10-17T14:36:04.358Z,20.70
2017-10-17T14:38:31.974Z,20.70
2017-10-17T14:40:59.595Z,20.60
2017-10-17T14:43:27.219Z,20.60
2017-10-17T14:45:54.835Z,20.50
2017-10-17T14:48:23.221Z,20.40
2017-10-17T14:50:50.889Z,20.30
2017-10-17T14:53:18.505Z,20.30
2017-10-17T14:55:46.119Z,20.20
2017-10-17T14:58:13.731Z,20.10
2017-10-17T15:00:41.346Z,20.00
2017-10-17T15:03:08.921Z,19.90
2017-10-17T15:05:36.543Z,19.80
2017-10-17T15:08:04.182Z,19.70
2017-10-17T15:10:31.812Z,19.70
2017-10-17T15:12:59.430Z,19.70
2017-10-17T15:15:27.046Z,19.70
2017-10-17T15:17:54.670Z,19.60
2017-10-17T15:20:22.278Z,19.60
2017-10-17T15:22:49.860Z,19.50
2017-10-17T15:25:17.445Z,19.40
2017-10-17T15:27:45.063Z,19.30
2017-10-17T15:30:12.682Z,19.20
2017-10-17T15:32:40.311Z,19.10
2017-10-17T15:35:07.934Z,18.90
2017-10-17T15:37:35.566Z,18.80
2017-10-17T15:40:03.197Z,18.70
2017-10-17T15:42:31.586Z,18.50
2017-10-17T15:44:59.974Z,18.40
2017-10-17T15:47:27.772Z,18.40
2017-10-17T15:49:55.535Z,18.20
2017-10-17T15:52:23.106Z,18.10
2017-10-17T15:54:50.730Z,18.10
2017-10-17T15:57:18.472Z,18.00
2017-10-17T15:59:46.846Z,17.70
2017-10-17T16:02:15.222Z,17.70
2017-10-17T16:04:43.561Z,17.60
2017-10-17T16:07:11.182Z,17.50
2017-10-17T16:09:38.753Z,17.40
2017-10-17T16:12:06.359Z,17.30
2017-10-17T16:14:33.975Z,17.20
2017-10-17T16:17:01.584Z,17.10
2017-10-17T16:19:29.198Z,16.90
2017-10-17T16:21:56.810Z,16.80
2017-10-17T16:24:24.430Z,16.70
2017-10-17T16:26:52.082Z,16.60
2017-10-17T16:29:19.715Z,16.50
2017-10-17T16:31:48.118Z,16.40
2017-10-17T16:34:15.739Z,16.40
2017-10-17T16:36:43.355Z,16.40
2017-10-17T16:39:10.966Z,16.40
2017-10-17T16:41:38.834Z,16.40
2017-10-17T16:44:06.443Z,16.40
2017-10-17T16:46:34.064Z,16.30
2017-10-17T16:49:02.439Z,16.10
2017-10-17T16:51:30.266Z,16.10
2017-10-17T16:53:57.843Z,16.00
2017-10-17T16:56:25.459Z,15.90
2017-10-17T16:58:53.074Z,15.80
2017-10-17T17:01:20.682Z,15.80
2017-10-17T17:03:48.374Z,15.70
2017-10-17T17:06:15.982Z,15.70
2017-10-17T17:08:43.594Z,15.60
2017-10-17T17:11:11.180Z,15.50
2017-10-17T17:13:38.850Z,15.50
2017-10-17T17:16:06.457Z,15.40
2017-10-17T17:18:34.029Z,15.40
2017-10-17T17:21:01.643Z,15.40
2017-10-17T17:23:29.303Z,15.30
2017-10-17T17:25:57.640Z,15.30
2017-10-17T17:28:25.246Z,15.30
2017-10-17T17:30:52.860Z,15.30
2017-10-17T17:33:20.580Z,15.30
2017-10-17T17:35:48.191Z,15.20
2017-10-17T17:38:15.820Z,15.20
2017-10-17T17:40:43.427Z,15.10
2017-10-17T17:43:11.040Z,15.10
2017-10-17T17:45:38.610Z,15.00
2017-10-17T17:48:06.235Z,15.00
2017-10-17T17:50:33.895Z,14.90
2017-10-17T17:53:02.360Z,14.90
2017-10-17T17:55:30.022Z,14.90
2017-10-17T17:57:57.754Z,14.90
2017-10-17T18:00:25.400Z,14.90
2017-10-17T18:02:53.459Z,14.90
2017-10-17T18:05:21.068Z,14.90
2017-10-17T18:07:48.742Z,14.90
2017-10-17T18:10:16.489Z,14.90
2017-10-17T18:12:44.099Z,14.90
2017-10-17T18:15:11.711Z,14.80
2017-10-17T18:17:39.359Z,14.80
2017-10-17T18:20:06.967Z,14.80
2017-10-17T18:22:35.367Z,14.60
2017-10-17T18:25:02.941Z,14.60
2017-10-17T18:27:30.628Z,14.60
2017-10-17T18:29:58.243Z,14.60
2017-10-17T18:32:25.969Z,14.50
2017-10-17T18:34:53.584Z,14.50
2017-10-17T18:37:21.203Z,14.40
2017-10-17T18:39:49.099Z,14.40
2017-10-17T18:42:16.719Z,14.40
2017-10-17T18:44:44.326Z,14.40
2017-10-17T18:47:12.707Z,14.30
2017-10-17T18:49:41.090Z,14.30
2017-10-17T18:52:08.711Z,14.30
2017-10-17T18:54:36.318Z,14.20
2017-10-17T18:57:03.971Z,14.30
2017-10-17T18:59:31.579Z,14.20
2017-10-17T19:01:59.189Z,14.10
2017-10-17T19:04:26.807Z,14.10
2017-10-17T19:06:54.639Z,14.10
2017-10-17T19:09:22.247Z,14.10
2017-10-17T19:11:49.859Z,14.00
2017-10-17T19:14:17.467Z,14.00
2017-10-17T19:16:45.076Z,13.90
2017-10-17T19:19:12.686Z,13.90
2017-10-17T19:21:40.797Z,13.90
2017-10-17T19:24:09.182Z,13.80
2017-10-17T19:26:36.796Z,13.70
2017-10-17T19:29:04.406Z,13.70
2017-10-17T19:31:32.081Z,13.70
2017-10-17T19:33:59.691Z,13.70
2017-10-17T19:36:27.298Z,13.70
2017-10-17T19:38:54.924Z,13.60
2017-10-17T19:41:22.812Z,13.60
2017-10-17T19:43:50.424Z,13.60
2017-10-17T19:46:18.035Z,13.50
2017-10-17T19:48:45.647Z,13.50
2017-10-17T19:51:13.262Z,13.40
2017-10-17T19:53:40.881Z,13.40
2017-10-17T19:56:08.556Z,13.40
2017-10-17T19:58:36.934Z,13.30
2017-10-17T20:01:04.554Z,13.30
2017-10-17T20:03:32.170Z,13.30
2017-10-17T20:06:00.555Z,13.20
2017-10-17T20:08:28.931Z,13.20
2017-10-17T20:10:57.323Z,13.10
2017-10-17T20:13:24.930Z,13.10
2017-10-17T20:15:52.601Z,13.10
2017-10-17T20:18:20.819Z,13.10
2017-10-17T20:20:48.496Z,13.00
2017-10-17T20:23:16.125Z,13.00
2017-10-17T20:25:44.462Z,13.00
2017-10-17T20:28:12.101Z,13.00
2017-10-17T20:30:39.734Z,12.90
2017-10-17T20:33:08.176Z,12.90
2017-10-17T20:35:35.786Z,12.80
2017-10-17T20:38:03.394Z,12.90
2017-10-17T20:40:31.026Z,12.90
2017-10-17T20:42:58.646Z,12.80
2017-10-17T20:45:26.260Z,12.80
2017-10-17T20:47:53.844Z,12.80
2017-10-17T20:50:21.475Z,12.80
2017-10-17T20:52:49.865Z,12.90
2017-10-17T20:55:17.497Z,12.90
2017-10-17T20:57:45.115Z,12.80
2017-10-17T21:00:12.714Z,12.80
2017-10-17T21:02:40.335Z,12.80
2017-10-17T21:05:07.953Z,12.80
2017-10-17T21:07:35.627Z,12.70
2017-10-17T21:10:03.398Z,12.60
2017-10-17T21:12:31.007Z,12.60
2017-10-17T21:14:58.586Z,12.60
2017-10-17T21:17:55.816Z,12.60
2017-10-17T21:20:23.500Z,12.60
2017-10-17T21:22:51.554Z,12.60
2017-10-17T21:25:25.870Z,12.60
2017-10-17T21:28:06.193Z,12.60
2017-10-17T21:33:25.069Z,12.60
2017-10-17T21:35:52.694Z,12.60
2017-10-17T21:38:20.304Z,12.60
2017-10-17T21:40:47.924Z,12.60
2017-10-17T21:43:15.543Z,12.50
2017-10-17T21:45:43.315Z,12.50
2017-10-17T21:48:11.015Z,12.50
2017-10-17T21:50:38.624Z,12.50
2017-10-17T21:53:06.234Z,12.50
2017-10-17T21:55:33.846Z,12.50
2017-10-17T21:58:01.513Z,12.50
2017-10-17T22:00:40.965Z,12.50
2017-10-17T22:03:09.356Z,12.50
2017-10-17T22:05:37.737Z,12.50
2017-10-17T22:08:06.121Z,12.50
2017-10-17T22:10:33.736Z,12.40
2017-10-17T22:13:01.346Z,12.40
2017-10-17T22:15:28.962Z,12.40
2017-10-17T22:17:56.579Z,12.40
2017-10-17T22:20:24.192Z,12.40
2017-10-17T22:22:51.809Z,12.40
2017-10-17T22:25:19.427Z,12.40
2017-10-17T22:27:47.045Z,12.40
2017-10-17T22:30:14.658Z,12.30
2017-10-17T22:32:42.268Z,12.30
2017-10-17T22:35:09.887Z,12.30
2017-10-17T22:37:37.503Z,12.30
2017-10-17T22:40:05.121Z,12.20
2017-10-17T22:42:32.738Z,12.20
2017-10-17T22:45:00.313Z,12.10
2017-10-17T22:47:27.940Z,12.10
2017-10-17T22:49:55.559Z,12.00
2017-10-17T22:52:23.138Z,11.90
2017-10-17T22:54:50.711Z,11.90
2017-10-17T22:57:18.318Z,11.90
2017-10-17T22:59:45.927Z,11.90
2017-10-17T23:02:13.545Z,11.90
2017-10-17T23:04:41.923Z,11.90
2017-10-17T23:07:10.314Z,11.90
2017-10-17T23:09:38.694Z,11.90
2017-10-17T23:12:07.071Z,11.90
2017-10-17T23:14:35.409Z,11.80
2017-10-17T23:17:14.754Z,11.80
2017-10-17T23:19:54.107Z,11.80
2017-10-17T23:22:33.504Z,11.80
2017-10-17T23:25:01.122Z,11.70
2017-10-17T23:27:28.742Z,11.70
2017-10-17T23:29:56.354Z,11.70
2017-10-17T23:32:24.256Z,11.70
2017-10-17T23:34:51.876Z,11.70
2017-10-17T23:37:19.503Z,11.70
2017-10-17T23:39:47.121Z,11.70
2017-10-17T23:42:14.738Z,11.70
2017-10-17T23:44:42.313Z,11.70
2017-10-17T23:47:09.932Z,11.70
2017-10-17T23:49:37.547Z,11.70
2017-10-17T23:52:05.207Z,11.70
2017-10-17T23:54:32.814Z,11.70
2017-10-17T23:57:00.423Z,11.70
2017-10-17T23:59:28.035Z,11.60
